Breeden, West Virginia
Current Conditions -  °F | °C
As of 1:15 AM on Saturday 29 Nov 2014 (Local Time) from KSJS Reporting Station
Clear Clear  
Wind Chill: 32°   Ceiling: Unl
Heat Index: 32°   Visibility: 10mi
Dew Point: 22°   Wind: 3mph
Humidity: 65%   Direction: 130°SE
Pressure: 30.13"   Gusts: NA
Location:  37.93°N, 82.28°W
Report Text: KSJS 290615Z AUTO 13003KT 10SM CLR 00/M06 A3013 RMK AO2 T00001058
Loading
Personal Weather Stations






























Interactive Weather Map New forecast layout! Learn more

10-Day Weather Forecast

Advertisements
Track Severe Weather on mobile